Time;durP1;ratioP1;P1;durP2;ratioP2;P2;SDS_P1;SDS_P2;PMS_P1;PMS_P2;Temp;Humidity;BMP_temperature;BMP_pressure;BME280_temperature;BME280_humidity;BME280_pressure;Samples;Min_cycle;Max_cycle;Signal;HPM_P1;HPM_P2
2022/09/16 00:00:53;;;;;;;6.95;1.30;;;;;;;14.69;77.61;101013.97;5071529;28;20086;-68
2022/09/16 00:03:53;;;;;;;6.32;1.15;;;;;;;14.73;75.47;101002.50;5043947;28;20071;-69
2022/09/16 00:06:37;;;;;;;4.18;1.27;;;;;;;14.84;74.73;100997.00;5069943;28;20353;-68
2022/09/16 00:09:19;;;;;;;6.05;1.40;;;;;;;14.85;72.82;100993.44;5070409;28;20055;-71
2022/09/16 00:12:09;;;;;;;8.63;1.30;;;;;;;14.77;73.37;100991.00;5062372;28;20052;-68
2022/09/16 00:14:49;;;;;;;3.63;1.33;;;;;;;14.82;72.22;100988.25;5068329;28;20048;-72
2022/09/16 00:17:30;;;;;;;5.10;1.00;;;;;;;14.86;72.15;100985.53;5071320;28;20048;-68
2022/09/16 00:20:40;;;;;;;7.20;1.17;;;;;;;15.12;69.78;101001.63;5072442;28;20323;-70
2022/09/16 00:23:18;;;;;;;3.30;1.07;;;;;;;15.22;69.18;100992.59;5070171;28;20270;-67
2022/09/16 00:26:06;;;;;;;4.00;1.23;;;;;;;15.18;67.86;100997.09;5071867;28;20342;-69
2022/09/16 00:28:55;;;;;;;5.57;1.40;;;;;;;15.29;68.97;100996.81;5044764;28;20318;-70
2022/09/16 00:31:38;;;;;;;4.53;1.17;;;;;;;15.13;68.31;100953.34;5070558;28;20623;-70
2022/09/16 00:34:23;;;;;;;5.43;1.10;;;;;;;15.37;69.14;100984.31;5083761;28;20361;-69
2022/09/16 00:37:15;;;;;;;7.32;1.30;;;;;;;15.56;69.11;100975.97;5071304;28;20362;-69
2022/09/16 00:40:05;;;;;;;7.43;1.40;;;;;;;15.74;68.85;100980.78;5071882;28;20246;-69
2022/09/16 00:42:59;;;;;;;3.13;1.07;;;;;;;15.81;69.09;100986.78;5006675;28;20287;-68
2022/09/16 00:45:37;;;;;;;3.40;1.33;;;;;;;16.08;69.57;100990.44;5071910;28;20339;-70
2022/09/16 00:48:25;;;;;;;4.27;1.40;;;;;;;16.21;67.71;100989.19;5070745;28;20410;-69
2022/09/16 00:51:19;;;;;;;3.37;1.07;;;;;;;16.25;67.66;100998.75;5069886;28;20311;-70
2022/09/16 00:54:15;;;;;;;4.37;1.10;;;;;;;16.37;68.47;100987.84;5040251;28;20283;-68
2022/09/16 00:57:34;;;;;;;2.63;1.17;;;;;;;16.45;68.87;100986.75;5070772;28;20314;-69
2022/09/16 01:00:19;;;;;;;4.83;1.50;;;;;;;16.64;68.01;100985.28;5071760;28;20493;-69
2022/09/16 01:03:01;;;;;;;6.63;1.43;;;;;;;16.73;66.60;100985.03;5069779;28;20306;-67
2022/09/16 01:05:56;;;;;;;5.83;1.67;;;;;;;16.90;66.51;100986.31;5071023;28;20581;-69
2022/09/16 01:08:35;;;;;;;6.30;1.70;;;;;;;16.90;65.51;100991.56;5070711;28;20358;-68
2022/09/16 01:11:24;;;;;;;9.47;1.83;;;;;;;16.83;65.04;100987.44;5070281;28;20301;-68
2022/09/16 01:14:51;;;;;;;5.00;1.40;;;;;;;16.85;65.43;100972.38;5052729;28;20311;-68
2022/09/16 01:17:24;;;;;;;9.37;1.70;;;;;;;17.02;66.09;100970.06;5069662;28;20275;-68
2022/09/16 01:20:47;;;;;;;7.17;1.73;;;;;;;17.63;63.49;100967.19;5070932;28;20288;-68
2022/09/16 01:24:07;;;;;;;6.47;1.50;;;;;;;17.84;63.07;100970.91;5012286;28;20574;-68
2022/09/16 01:27:40;;;;;;;7.93;1.93;;;;;;;17.75;62.30;100965.91;5004573;28;20484;-68
2022/09/16 01:30:44;;;;;;;6.00;1.70;;;;;;;17.79;63.16;100956.94;4991524;28;20293;-68
2022/09/16 01:33:34;;;;;;;8.33;1.43;;;;;;;17.90;63.83;100933.69;4992335;28;20305;-68
2022/09/16 01:36:26;;;;;;;2.10;1.33;;;;;;;18.13;62.66;100950.50;4992444;28;20333;-68
2022/09/16 01:39:43;;;;;;;7.27;1.50;;;;;;;18.06;60.73;100950.69;4991923;28;20305;-69
2022/09/16 01:42:38;;;;;;;6.43;1.43;;;;;;;18.00;61.16;100937.72;4992242;28;20320;-68
2022/09/16 01:45:32;;;;;;;4.93;1.50;;;;;;;18.08;60.42;100938.28;4991774;28;20305;-68
2022/09/16 01:48:30;;;;;;;11.17;1.67;;;;;;;18.11;59.07;100937.31;4992216;28;20306;-68
2022/09/16 01:51:15;;;;;;;6.20;1.70;;;;;;;18.15;58.26;100938.94;4990082;28;20290;-69
2022/09/16 01:54:09;;;;;;;10.33;1.83;;;;;;;18.11;58.59;100927.59;4991952;28;20415;-69
2022/09/16 01:57:07;;;;;;;12.63;1.73;;;;;;;18.26;59.80;100930.59;4992105;28;20661;-68
2022/09/16 01:59:57;;;;;;;2.77;1.30;;;;;;;18.27;58.97;100914.69;5006229;28;20320;-69
2022/09/16 02:02:43;;;;;;;3.70;1.20;;;;;;;18.36;58.47;100931.09;5027373;28;20271;-70
2022/09/16 02:05:39;;;;;;;11.53;1.47;;;;;;;18.24;59.17;100927.13;5054248;28;20318;-68
2022/09/16 02:08:32;;;;;;;5.38;1.73;;;;;;;18.11;59.44;100932.88;5053123;28;20304;-70
2022/09/16 02:11:09;;;;;;;5.10;1.30;;;;;;;18.16;59.15;100929.22;5053082;28;20053;-69
2022/09/16 02:13:52;;;;;;;4.03;1.57;;;;;;;18.29;58.46;100918.09;5053051;28;20292;-69
2022/09/16 02:16:30;;;;;;;7.57;1.80;;;;;;;18.39;58.87;100931.84;5054832;28;20284;-69
2022/09/16 02:19:30;;;;;;;3.40;2.30;;;;;;;18.38;57.73;100903.66;5053114;28;20303;-69
2022/09/16 02:22:17;;;;;;;2.50;1.60;;;;;;;18.86;57.83;100931.81;5029461;28;20364;-69
2022/09/16 02:24:54;;;;;;;11.33;4.03;;;;;;;19.09;54.70;100937.94;5051401;28;20288;-70
2022/09/16 02:27:35;;;;;;;3.13;1.27;;;;;;;19.11;54.17;100921.06;5031701;28;20318;-69
2022/09/16 02:30:33;;;;;;;5.17;1.13;;;;;;;19.00;53.70;100933.06;5055444;28;20295;-69
2022/09/16 02:33:18;;;;;;;2.47;0.90;;;;;;;19.01;51.89;100929.47;5083548;28;20274;-69
2022/09/16 02:38:47;;;;;;;;;;;;;;;19.16;52.71;100928.81;5038323;28;20299;-68
2022/09/16 02:41:29;;;;;;;17.30;2.80;;;;;;;19.27;53.34;100921.31;5073821;28;19925;-70
2022/09/16 02:44:08;;;;;;;13.87;1.67;;;;;;;19.31;52.88;100922.88;5069807;28;20599;-70
2022/09/16 02:46:57;;;;;;;11.37;1.70;;;;;;;19.56;52.93;100927.16;5070000;28;20278;-69
2022/09/16 02:49:43;;;;;;;14.40;2.23;;;;;;;19.66;52.71;100923.16;5073025;28;20318;-70
2022/09/16 02:52:34;;;;;;;7.67;1.30;;;;;;;19.88;52.50;100922.25;5053911;28;20287;-69
2022/09/16 02:55:17;;;;;;;10.40;1.50;;;;;;;19.67;51.37;100911.69;5071588;28;20284;-68
2022/09/16 02:58:11;;;;;;;20.13;2.47;;;;;;;19.78;54.79;100922.66;5058414;28;20331;-68
2022/09/16 03:00:52;;;;;;;11.53;1.40;;;;;;;20.06;56.20;100910.81;5037025;28;20348;-68
2022/09/16 03:03:31;;;;;;;7.17;1.20;;;;;;;20.19;55.10;100912.00;5073181;28;20359;-69
2022/09/16 03:09:30;;;;;;;4.80;1.00;;;;;;;19.47;54.37;100907.22;5070431;28;20294;-70
2022/09/16 03:13:02;;;;;;;6.20;1.90;;;;;;;19.35;57.65;100924.50;5069417;28;20293;-69
2022/09/16 03:16:21;;;;;;;2.50;1.30;;;;;;;19.15;55.22;100921.81;5030414;28;20295;-68
2022/09/16 03:19:09;;;;;;;14.07;2.00;;;;;;;19.23;56.41;100903.81;5072124;28;20314;-69
2022/09/16 03:21:55;;;;;;;17.33;1.67;;;;;;;19.73;57.58;100908.75;5072595;28;20288;-68
2022/09/16 03:27:53;;;;;;;10.97;2.30;;;;;;;20.26;54.81;100913.41;5071843;28;20298;-68
2022/09/16 03:30:38;;;;;;;21.63;2.10;;;;;;;20.49;54.92;100914.13;5070829;28;20341;-68
2022/09/16 03:33:29;;;;;;;9.23;1.90;;;;;;;20.70;54.12;100908.78;5072242;28;20291;-68
2022/09/16 03:36:19;;;;;;;22.80;2.33;;;;;;;20.68;54.24;100876.97;5070863;28;20287;-67
2022/09/16 03:42:10;;;;;;;13.40;2.37;;;;;;;20.95;52.98;100898.66;5070071;28;20283;-67
2022/09/16 03:50:39;;;;;;;15.87;2.00;;;;;;;20.44;54.12;100892.25;5070680;28;20333;-68
2022/09/16 03:53:23;;;;;;;12.07;4.00;;;;;;;20.40;52.20;100888.88;5071371;28;20295;-68
2022/09/16 04:01:52;;;;;;;20.67;2.10;;;;;;;20.71;54.74;100892.75;5031018;28;20284;-68
2022/09/16 04:04:36;;;;;;;9.63;1.57;;;;;;;20.94;54.74;100888.94;4992291;28;20314;-68
2022/09/16 04:07:11;;;;;;;4.93;1.63;;;;;;;21.09;54.32;100885.56;5030734;28;20321;-67
2022/09/16 04:09:46;;;;;;;29.43;2.90;;;;;;;21.32;52.98;100883.53;5029195;28;20292;-68
2022/09/16 04:12:32;;;;;;;4.83;1.30;;;;;;;21.58;52.17;100884.00;5006510;28;20577;-68
2022/09/16 04:15:16;;;;;;;120.97;7.63;;;;;;;21.76;51.34;100856.41;4994380;28;20272;-68
2022/09/16 04:18:03;;;;;;;15.83;1.40;;;;;;;22.04;51.52;100876.22;4999113;28;20300;-69
2022/09/16 04:20:42;;;;;;;9.37;1.53;;;;;;;21.95;51.63;100873.13;5029857;28;20307;-69
2022/09/16 04:23:23;;;;;;;10.73;1.20;;;;;;;21.87;51.79;100870.03;5031023;28;20268;-68
2022/09/16 04:26:09;;;;;;;8.13;1.77;;;;;;;21.69;52.70;100860.34;5028722;28;20280;-68
2022/09/16 04:29:04;;;;;;;8.83;1.50;;;;;;;21.42;52.47;100850.25;5025916;28;20360;-69
2022/09/16 04:31:56;;;;;;;9.50;1.70;;;;;;;21.44;53.74;100872.28;5029097;28;20312;-68
2022/09/16 04:34:59;;;;;;;6.93;1.70;;;;;;;21.30;52.58;100874.75;4988389;28;20276;-69
2022/09/16 04:37:55;;;;;;;4.73;1.40;;;;;;;21.13;52.62;100877.41;4989216;28;20291;-68
2022/09/16 04:40:33;;;;;;;5.67;1.63;;;;;;;21.07;53.57;100867.97;4986802;28;20507;-68
2022/09/16 04:43:13;;;;;;;3.92;1.40;;;;;;;21.03;53.70;100861.94;5030703;28;20411;-68
2022/09/16 04:46:10;;;;;;;150.83;9.40;;;;;;;21.01;53.38;100858.50;5029707;28;20295;-68
2022/09/16 04:48:50;;;;;;;26.63;2.13;;;;;;;20.90;52.94;100853.72;4991201;28;20319;-69
2022/09/16 04:51:39;;;;;;;11.23;1.63;;;;;;;20.85;53.84;100857.56;5072376;28;20318;-70
2022/09/16 04:57:14;;;;;;;3.70;1.23;;;;;;;20.61;53.58;100855.16;5052338;28;20284;-67
2022/09/16 05:00:04;;;;;;;7.87;1.30;;;;;;;20.53;54.01;100862.59;5073887;28;20354;-67
2022/09/16 05:02:47;;;;;;;7.10;2.27;;;;;;;20.52;54.21;100858.25;5073724;28;20291;-67
2022/09/16 05:05:34;;;;;;;10.90;1.77;;;;;;;20.47;53.15;100868.22;5066522;28;20301;-67
2022/09/16 05:08:27;;;;;;;10.60;1.38;;;;;;;20.46;53.15;100866.47;5073079;28;20307;-67
2022/09/16 05:11:18;;;;;;;9.83;2.00;;;;;;;20.37;53.14;100866.94;5075080;28;20040;-67
2022/09/16 05:17:08;;;;;;;23.15;2.85;;;;;;;20.36;52.70;100857.25;5073679;28;20342;-67
2022/09/16 05:20:05;;;;;;;5.83;1.50;;;;;;;20.64;51.44;100849.72;5075468;28;20079;-67
2022/09/16 05:22:51;;;;;;;15.17;1.70;;;;;;;20.85;50.59;100857.56;5075396;28;20299;-66
2022/09/16 05:25:44;;;;;;;15.57;1.37;;;;;;;20.88;50.65;100852.94;5074522;28;20290;-66
2022/09/16 05:28:21;;;;;;;4.50;1.80;;;;;;;20.78;49.62;100856.13;5073256;28;20287;-66
2022/09/16 05:30:56;;;;;;;19.50;1.30;;;;;;;20.57;50.28;100858.91;5073509;28;20303;-66
2022/09/16 05:33:50;;;;;;;16.57;2.47;;;;;;;20.48;51.35;100869.94;5072876;28;20080;-64
2022/09/16 05:36:43;;;;;;;5.60;1.10;;;;;;;20.20;50.44;100850.00;5066386;28;20305;-66
2022/09/16 05:39:23;;;;;;;6.53;1.20;;;;;;;20.10;51.17;100869.94;5074969;28;20326;-66
2022/09/16 05:42:32;;;;;;;8.33;2.40;;;;;;;19.95;52.06;100865.34;5075148;28;20329;-65
2022/09/16 05:45:14;;;;;;;24.07;3.33;;;;;;;19.88;52.28;100863.91;5074814;28;20301;-65
2022/09/16 05:50:51;;;;;;;10.47;2.00;;;;;;;19.96;51.43;100845.84;5072168;28;20283;-67
2022/09/16 05:53:47;;;;;;;10.50;1.40;;;;;;;19.89;50.72;100868.28;5074090;28;20291;-64
2022/09/16 05:56:31;;;;;;;16.40;2.50;;;;;;;19.68;49.19;100863.00;5074247;28;20303;-64
2022/09/16 05:59:18;;;;;;;9.30;1.57;;;;;;;19.49;48.96;100856.78;5047800;28;20729;-66
2022/09/16 06:01:59;;;;;;;13.23;1.33;;;;;;;19.48;49.53;100871.81;5074793;28;20303;-65
2022/09/16 06:04:42;;;;;;;17.63;2.03;;;;;;;19.44;50.32;100869.34;5072457;28;20302;-66
2022/09/16 06:07:25;;;;;;;18.80;1.97;;;;;;;19.45;51.40;100876.41;5071792;28;20341;-67
2022/09/16 06:10:06;;;;;;;14.20;1.40;;;;;;;19.35;52.45;100876.78;5073655;28;20306;-66
2022/09/16 06:12:50;;;;;;;11.75;1.27;;;;;;;19.26;53.28;100876.31;5073182;28;20293;-64
2022/09/16 06:15:36;;;;;;;10.70;1.43;;;;;;;19.21;53.64;100873.88;5072682;28;20052;-65
2022/09/16 06:18:19;;;;;;;42.67;3.70;;;;;;;18.75;53.87;100796.34;5072252;28;20507;-65
2022/09/16 06:21:08;;;;;;;15.83;1.60;;;;;;;18.84;53.91;100826.88;5072694;28;20302;-65
2022/09/16 06:23:48;;;;;;;10.35;1.42;;;;;;;19.15;54.38;100874.13;5072719;28;20559;-66
2022/09/16 06:26:36;;;;;;;9.90;1.43;;;;;;;19.12;54.68;100869.84;5072354;28;20457;-66
2022/09/16 06:29:23;;;;;;;25.27;2.17;;;;;;;19.04;54.29;100881.66;5072487;28;20325;-64
2022/09/16 06:32:13;;;;;;;10.27;1.30;;;;;;;18.96;54.17;100885.47;5073073;28;20434;-66
2022/09/16 06:34:52;;;;;;;68.53;4.53;;;;;;;18.96;54.62;100882.84;5055316;28;20765;-65
2022/09/16 06:37:29;;;;;;;9.50;1.57;;;;;;;19.01;54.81;100882.66;5072204;28;20593;-64
2022/09/16 06:40:07;;;;;;;11.80;1.63;;;;;;;18.98;54.69;100887.22;5054482;28;20321;-65
2022/09/16 06:42:47;;;;;;;12.35;2.00;;;;;;;18.94;54.52;100889.97;5074886;28;20284;-65
2022/09/16 06:45:30;;;;;;;6.47;1.40;;;;;;;18.86;54.08;100889.44;5071766;28;20074;-65
2022/09/16 06:48:41;;;;;;;25.90;2.70;;;;;;;18.80;54.74;100895.00;5071509;28;20309;-64
2022/09/16 06:51:23;;;;;;;7.43;1.37;;;;;;;18.67;54.29;100888.41;5071818;28;20068;-63
2022/09/16 06:54:03;;;;;;;21.03;1.57;;;;;;;18.66;55.21;100897.28;5072067;28;20307;-65
2022/09/16 06:56:45;;;;;;;10.33;1.57;;;;;;;18.60;54.81;100902.84;5053683;28;20529;-64
2022/09/16 06:59:29;;;;;;;61.60;5.30;;;;;;;18.54;55.42;100902.13;5071923;28;20649;-65
2022/09/16 07:02:32;;;;;;;;;;;;;;;;;;;;;
2022/09/16 07:05:23;;;;;;;41.55;3.30;;;;;;;18.34;55.51;100904.69;5072264;28;20471;-65
2022/09/16 07:08:10;;;;;;;53.40;3.83;;;;;;;18.10;55.63;100878.28;5071990;28;20045;-65
2022/09/16 07:10:45;;;;;;;7.77;1.20;;;;;;;17.95;55.76;100894.72;5071010;28;20469;-67
2022/09/16 07:13:32;;;;;;;13.17;1.43;;;;;;;17.51;56.21;100846.06;5072009;28;20279;-66
2022/09/16 07:16:12;;;;;;;21.50;2.37;;;;;;;17.54;56.62;100870.59;5029257;28;20285;-66
2022/09/16 07:18:55;;;;;;;11.50;2.30;;;;;;;17.83;56.93;100932.19;5073126;28;20500;-65
2022/09/16 07:21:56;;;;;;;6.60;1.10;;;;;;;17.86;57.51;100924.13;5040378;28;20368;-65
2022/09/16 07:24:32;;;;;;;37.70;3.43;;;;;;;17.90;57.63;100933.69;5070261;28;20297;-66
2022/09/16 07:27:06;;;;;;;10.20;1.30;;;;;;;17.80;57.56;100927.00;5071633;28;20275;-64
2022/09/16 07:30:01;;;;;;;47.73;4.63;;;;;;;17.74;57.74;100928.03;5072127;28;20515;-65
2022/09/16 07:32:41;;;;;;;16.60;1.93;;;;;;;17.65;57.58;100926.59;5043688;28;20310;-65
2022/09/16 07:35:21;;;;;;;6.73;1.50;;;;;;;17.59;57.98;100934.72;5055242;28;20324;-66
2022/09/16 07:38:12;;;;;;;106.77;8.27;;;;;;;17.42;58.34;100931.78;5043429;28;20282;-66
2022/09/16 07:40:54;;;;;;;15.60;1.90;;;;;;;17.19;59.01;100925.50;5071782;28;20288;-65
2022/09/16 07:43:30;;;;;;;9.57;1.63;;;;;;;17.12;59.70;100939.81;5068062;28;20222;-66
2022/09/16 07:46:09;;;;;;;37.50;3.53;;;;;;;16.95;60.35;100926.34;5069778;28;20345;-65
2022/09/16 07:48:50;;;;;;;13.23;1.63;;;;;;;16.79;60.58;100937.34;5053996;28;20290;-64
2022/09/16 07:51:33;;;;;;;10.82;2.05;;;;;;;16.63;60.82;100936.09;5072367;28;20444;-64
2022/09/16 07:57:18;;;;;;;18.43;2.20;;;;;;;16.14;61.76;100916.44;5068569;28;20314;-64
2022/09/16 08:00:17;;;;;;;;;;;;;;;;;;;;;
2022/09/16 08:03:03;;;;;;;27.00;3.00;;;;;;;16.06;63.11;100955.34;5071423;28;20333;-65
2022/09/16 08:05:52;;;;;;;56.57;4.33;;;;;;;15.92;63.74;100948.66;5039469;28;20284;-64
2022/09/16 08:08:40;;;;;;;64.83;4.47;;;;;;;15.75;64.68;100924.56;5071169;28;20291;-64
2022/09/16 08:11:24;;;;;;;17.10;2.00;;;;;;;15.70;65.28;100939.63;5073178;28;20279;-65
2022/09/16 08:14:06;;;;;;;24.55;2.20;;;;;;;15.68;65.24;100928.25;5072452;28;20599;-64
2022/09/16 08:17:05;;;;;;;31.53;4.20;;;;;;;15.65;65.96;100938.84;5062678;28;20115;-65
2022/09/16 08:20:05;;;;;;;9.20;2.13;;;;;;;15.55;66.54;100927.72;5041517;28;20351;-65
2022/09/16 08:23:01;;;;;;;48.07;4.00;;;;;;;15.46;67.14;100928.81;5069871;28;20322;-64
2022/09/16 08:26:07;;;;;;;24.07;2.60;;;;;;;15.38;67.61;100946.56;5054295;28;20338;-64
2022/09/16 08:31:49;;;;;;;87.87;6.97;;;;;;;15.12;69.09;100948.97;5056252;28;20291;-66
2022/09/16 08:34:26;;;;;;;23.52;2.35;;;;;;;15.02;69.72;100949.19;5083983;28;20548;-64
2022/09/16 08:37:14;;;;;;;46.47;4.10;;;;;;;15.03;69.96;100955.34;5069508;28;20056;-64
2022/09/16 08:39:58;;;;;;;22.37;2.80;;;;;;;14.97;70.67;100951.06;5071868;28;20350;-63
2022/09/16 08:42:55;;;;;;;61.63;5.30;;;;;;;14.87;71.16;100949.56;5069959;28;20317;-63
2022/09/16 08:45:44;;;;;;;23.70;4.27;;;;;;;14.82;71.41;100956.69;5069019;28;20346;-64
2022/09/16 08:48:37;;;;;;;14.13;3.03;;;;;;;14.75;72.00;100944.56;5070641;28;20329;-63
2022/09/16 08:51:28;;;;;;;19.13;3.43;;;;;;;14.23;72.75;100889.59;5069104;28;20304;-64
2022/09/16 08:54:12;;;;;;;24.33;3.73;;;;;;;14.56;73.20;100950.25;5084577;28;20306;-64
2022/09/16 08:57:06;;;;;;;24.87;3.97;;;;;;;14.44;73.80;100946.09;5068255;28;20326;-63
2022/09/16 09:00:02;;;;;;;18.17;2.93;;;;;;;14.39;74.27;100949.72;5071176;28;20500;-63
2022/09/16 09:02:56;;;;;;;14.97;2.60;;;;;;;14.32;74.50;100937.59;5057067;28;20307;-68
2022/09/16 09:05:48;;;;;;;15.10;2.77;;;;;;;14.26;75.61;100950.88;5029525;28;20312;-64
2022/09/16 09:08:43;;;;;;;35.13;3.43;;;;;;;14.20;76.07;100944.84;5028359;28;20609;-63
2022/09/16 09:11:36;;;;;;;12.73;2.70;;;;;;;14.17;76.39;100952.78;5029935;28;20324;-63
2022/09/16 09:14:31;;;;;;;14.03;3.43;;;;;;;14.07;76.98;100951.22;5028888;28;20339;-63
2022/09/16 09:17:27;;;;;;;20.87;3.60;;;;;;;13.95;77.67;100946.22;5028694;28;20302;-63
2022/09/16 09:20:50;;;;;;;;;;;;;;;;;;;;;
2022/09/16 09:23:57;;;;;;;;;;;;;;;;;;;;;
2022/09/16 09:26:46;;;;;;;15.27;2.43;;;;;;;13.65;79.88;100985.28;5029208;28;20313;-62
2022/09/16 09:30:05;;;;;;;14.20;2.40;;;;;;;13.61;80.63;100999.38;5025319;28;20296;-62
2022/09/16 09:33:15;;;;;;;15.75;2.55;;;;;;;13.60;81.06;100995.00;5027663;28;20276;-63
2022/09/16 09:39:57;;;;;;;26.97;3.60;;;;;;;13.53;81.93;101014.41;5007695;28;20081;-63
2022/09/16 09:42:50;;;;;;;23.58;2.83;;;;;;;13.47;82.02;101001.38;4988809;28;20332;-63
2022/09/16 09:45:35;;;;;;;32.15;4.38;;;;;;;13.57;82.09;101014.31;5012384;28;20053;-63
2022/09/16 09:48:23;;;;;;;16.58;2.42;;;;;;;13.58;82.12;101015.19;5011897;28;20042;-63
2022/09/16 09:51:27;;;;;;;13.77;2.60;;;;;;;13.52;82.43;101003.00;4985391;28;20112;-64
2022/09/16 09:54:33;;;;;;;8.88;2.60;;;;;;;13.49;82.85;101010.09;5012814;28;20061;-63
2022/09/16 09:57:20;;;;;;;13.35;3.15;;;;;;;13.38;83.11;100987.50;5010511;28;20046;-62
2022/09/16 10:00:21;;;;;;;16.23;2.75;;;;;;;13.27;83.82;100989.41;4997746;28;20116;-63
2022/09/16 10:03:17;;;;;;;29.73;3.85;;;;;;;13.11;84.34;100972.16;5011674;28;20062;-64
2022/09/16 10:06:07;;;;;;;29.10;3.53;;;;;;;13.27;85.15;101005.16;5012839;28;20061;-63
2022/09/16 10:09:07;;;;;;;8.18;3.13;;;;;;;12.90;85.34;100958.50;5013223;28;20062;-62
2022/09/16 10:14:59;;;;;;;;;;;;;;;13.02;85.94;101016.91;5053259;28;20119;-64
2022/09/16 10:17:41;;;;;;;31.67;3.28;;;;;;;12.77;86.17;100985.75;5074261;28;19934;-63
2022/09/16 10:20:35;;;;;;;;;;;;;;;12.87;86.08;101021.47;5079926;28;20049;-64
2022/09/16 10:23:19;;;;;;;10.80;2.75;;;;;;;12.73;85.86;101018.19;5073378;28;20004;-65
2022/09/16 10:26:24;;;;;;;13.73;4.25;;;;;;;12.68;85.85;101030.44;5073638;28;20080;-64
2022/09/16 10:29:22;;;;;;;10.63;3.30;;;;;;;12.68;85.83;101027.84;5072175;28;20067;-64
2022/09/16 10:32:06;;;;;;;197.20;15.20;;;;;;;12.68;85.70;101019.97;5047165;28;20053;-64
2022/09/16 10:34:50;;;;;;;130.20;9.88;;;;;;;12.66;85.96;101027.88;5071521;28;20087;-64
2022/09/16 10:37:34;;;;;;;63.10;5.18;;;;;;;12.57;86.09;101027.13;5073186;28;20051;-63
2022/09/16 10:40:28;;;;;;;26.95;3.83;;;;;;;12.20;86.32;100964.66;5074050;28;20115;-64
2022/09/16 10:43:07;;;;;;;21.85;3.72;;;;;;;12.49;86.71;101020.22;5072910;28;20052;-65
2022/09/16 10:46:01;;;;;;;11.70;2.70;;;;;;;12.51;86.97;101022.81;5074645;28;20080;-65
2022/09/16 10:48:50;;;;;;;10.23;2.22;;;;;;;12.52;87.32;101019.31;5053995;28;20053;-64
2022/09/16 10:51:33;;;;;;;166.60;11.63;;;;;;;12.49;87.36;101017.59;5037328;28;20115;-64
2022/09/16 10:54:31;;;;;;;71.28;5.90;;;;;;;12.11;87.45;100960.41;5072892;28;20087;-64
2022/09/16 10:57:05;;;;;;;33.75;3.88;;;;;;;12.39;87.71;101015.09;5071452;28;20092;-63
2022/09/16 11:00:04;;;;;;;15.57;2.97;;;;;;;12.29;87.62;101006.47;5054752;28;20053;-65
2022/09/16 11:03:21;;;;;;;25.83;4.03;;;;;;;12.15;87.84;101003.13;5055309;28;20243;-64
2022/09/16 11:06:14;;;;;;;23.88;4.20;;;;;;;12.00;88.03;101015.50;5071146;28;20096;-64
2022/09/16 11:09:03;;;;;;;8.98;2.63;;;;;;;11.87;88.17;101020.00;5050672;28;20059;-64
2022/09/16 11:12:15;;;;;;;8.60;2.42;;;;;;;11.81;88.58;101019.19;5073491;28;20100;-64
2022/09/16 11:15:01;;;;;;;11.68;2.58;;;;;;;11.79;88.79;101016.56;5072027;28;20100;-64
2022/09/16 11:18:01;;;;;;;8.23;3.15;;;;;;;11.56;88.24;100987.97;5053806;28;20082;-64
2022/09/16 11:21:27;;;;;;;7.75;2.88;;;;;;;11.59;88.87;101021.97;5039141;28;20115;-64
2022/09/16 11:24:50;;;;;;;6.20;2.85;;;;;;;11.54;88.91;101021.16;5072394;28;20058;-64
2022/09/16 11:27:41;;;;;;;22.48;3.20;;;;;;;11.52;89.23;101017.66;5011147;28;20058;-64
2022/09/16 11:30:44;;;;;;;21.13;4.80;;;;;;;11.49;89.11;101017.69;5010574;28;20074;-64
2022/09/16 11:33:32;;;;;;;24.30;11.25;;;;;;;11.44;89.49;101029.97;4989844;28;20085;-64
2022/09/16 11:37:04;;;;;;;11.30;6.05;;;;;;;11.42;89.86;101031.72;5010560;28;20128;-64
2022/09/16 11:40:12;;;;;;;7.03;1.85;;;;;;;11.34;89.95;101038.75;5008311;28;20054;-65
2022/09/16 11:43:14;;;;;;;6.28;2.42;;;;;;;11.23;90.12;101042.31;5009198;28;20113;-67
2022/09/16 11:46:15;;;;;;;6.95;2.08;;;;;;;11.21;90.33;101041.47;5009699;28;20296;-63
2022/09/16 11:49:12;;;;;;;6.93;2.00;;;;;;;10.78;90.14;100980.69;5010898;28;20042;-63
2022/09/16 11:51:58;;;;;;;16.08;6.88;;;;;;;11.09;90.62;101038.91;5010606;28;20113;-64
2022/09/16 11:54:59;;;;;;;22.70;9.48;;;;;;;10.97;90.63;101028.53;5009683;28;20085;-63
2022/09/16 11:57:46;;;;;;;16.80;6.60;;;;;;;10.92;91.12;101035.53;4960743;28;20069;-64
2022/09/16 12:00:27;;;;;;;7.80;2.25;;;;;;;10.93;91.20;101037.25;4930978;28;20046;-64
2022/09/16 12:06:46;;;;;;;13.52;3.55;;;;;;;10.97;90.60;101002.38;5070390;28;20145;-65
2022/09/16 12:09:42;;;;;;;13.10;5.47;;;;;;;11.00;90.63;101012.81;5071522;28;20072;-66
2022/09/16 12:12:36;;;;;;;19.75;4.35;;;;;;;10.98;90.92;101014.56;5072334;28;20117;-66
2022/09/16 12:15:40;;;;;;;15.57;3.22;;;;;;;10.79;90.83;100993.75;5040392;28;20041;-65
2022/09/16 12:18:24;;;;;;;8.38;3.88;;;;;;;10.82;91.02;101010.31;5036441;28;20091;-66
2022/09/16 12:21:25;;;;;;;8.05;3.58;;;;;;;10.83;91.39;101012.03;5069763;28;20049;-65
2022/09/16 12:24:15;;;;;;;8.98;3.38;;;;;;;10.86;91.39;101014.63;5069497;28;20349;-65
2022/09/16 12:27:17;;;;;;;7.93;3.20;;;;;;;10.87;91.67;101008.53;5070000;28;20145;-65
2022/09/16 12:30:19;;;;;;;10.02;3.35;;;;;;;10.91;91.49;101012.88;5043373;28;20218;-65
2022/09/16 12:33:06;;;;;;;13.93;4.13;;;;;;;10.95;91.32;101009.34;5069347;28;20069;-65
2022/09/16 12:35:58;;;;;;;22.52;5.75;;;;;;;10.97;91.02;101007.59;5070974;28;20052;-65
2022/09/16 12:38:43;;;;;;;40.40;6.13;;;;;;;10.94;90.88;101007.63;5070578;28;20048;-64
2022/09/16 12:41:42;;;;;;;41.67;8.38;;;;;;;10.95;90.80;101006.75;5069331;28;20056;-65
2022/09/16 12:45:10;;;;;;;30.25;8.18;;;;;;;10.90;90.68;101006.75;5070660;28;20152;-65
2022/09/16 12:48:19;;;;;;;113.10;13.15;;;;;;;10.88;90.75;100999.81;5066543;28;20048;-65
2022/09/16 12:51:29;;;;;;;90.22;8.85;;;;;;;10.88;90.74;100994.56;5067281;28;20137;-65
2022/09/16 12:54:49;;;;;;;12.68;4.60;;;;;;;10.82;90.47;100986.78;5066911;28;20056;-66
2022/09/16 12:58:08;;;;;;;5.45;2.60;;;;;;;10.75;90.43;100989.41;5021441;28;20303;-66
2022/09/16 13:01:18;;;;;;;6.97;3.20;;;;;;;10.71;90.80;100979.88;5022263;28;20060;-66
2022/09/16 13:04:13;;;;;;;6.38;3.33;;;;;;;10.70;91.11;100972.88;4977375;28;20113;-67
2022/09/16 13:07:22;;;;;;;10.32;3.13;;;;;;;10.68;91.15;100979.00;5021787;28;20088;-66
2022/09/16 13:10:17;;;;;;;8.63;2.75;;;;;;;10.64;91.10;100979.91;5021700;28;20145;-65
2022/09/16 13:13:30;;;;;;;4.90;2.10;;;;;;;10.64;90.91;100978.16;5035583;28;20064;-66
2022/09/16 13:16:08;;;;;;;5.65;2.40;;;;;;;10.61;91.08;100969.47;5013446;28;20049;-65
2022/09/16 13:19:11;;;;;;;5.68;2.20;;;;;;;10.40;90.76;100954.75;5045555;28;20056;-65
2022/09/16 13:22:05;;;;;;;7.35;2.00;;;;;;;10.46;91.15;100978.22;5004484;28;20060;-65
2022/09/16 13:24:50;;;;;;;9.30;1.77;;;;;;;10.37;91.38;100973.94;5045506;28;20393;-65
2022/09/16 13:33:49;;;;;;;49.30;3.55;;;;;;;10.41;91.27;100953.88;5039576;28;20083;-65
2022/09/16 13:36:44;;;;;;;76.60;5.43;;;;;;;10.42;90.86;100948.66;5035793;28;20362;-65
2022/09/16 13:39:38;;;;;;;36.63;5.25;;;;;;;10.34;90.80;100933.03;5084272;28;20124;-64
2022/09/16 13:42:23;;;;;;;18.08;4.30;;;;;;;10.43;90.80;100957.34;5073543;28;20058;-64
2022/09/16 13:45:35;;;;;;;9.82;3.25;;;;;;;10.35;90.66;100960.88;5073539;28;20063;-65
2022/09/16 13:48:18;;;;;;;6.53;2.58;;;;;;;10.21;90.78;100939.16;5064974;28;20400;-65
2022/09/16 13:51:01;;;;;;;9.98;2.50;;;;;;;9.96;90.51;100903.53;5047467;28;20054;-66
2022/09/16 13:54:02;;;;;;;6.43;2.38;;;;;;;10.04;90.67;100917.47;5020890;28;20056;-65
2022/09/16 13:57:01;;;;;;;3.95;2.03;;;;;;;10.21;90.64;100957.44;5051315;28;20325;-66
2022/09/16 14:00:10;;;;;;;4.72;1.90;;;;;;;10.17;90.25;100966.13;5066158;28;20057;-67
2022/09/16 14:03:18;;;;;;;10.30;2.42;;;;;;;10.06;89.87;100953.13;5065479;28;20056;-66
2022/09/16 14:06:36;;;;;;;6.28;2.22;;;;;;;9.91;90.19;100951.44;5048955;28;20045;-66
2022/09/16 14:09:46;;;;;;;7.30;3.78;;;;;;;9.94;89.90;100969.69;5066118;28;20055;-65
2022/09/16 14:12:46;;;;;;;6.40;4.28;;;;;;;9.88;90.19;100974.94;5023893;28;20056;-65
2022/09/16 14:15:26;;;;;;;38.40;6.40;;;;;;;9.89;89.96;100979.28;5065118;28;20049;-65